createdAt,value
2019-05-29T00:01:21.823Z,10.00
2019-05-29T00:03:49.700Z,10.00
2019-05-29T00:06:18.469Z,10.10
2019-05-29T00:08:46.024Z,10.10
2019-05-29T00:11:14.319Z,10.20
2019-05-29T00:13:41.726Z,10.30
2019-05-29T00:16:10.284Z,10.30
2019-05-29T00:18:37.709Z,10.40
2019-05-29T00:21:06.312Z,10.50
2019-05-29T00:23:33.700Z,10.60
2019-05-29T00:26:01.389Z,10.60
2019-05-29T00:28:28.656Z,10.70
2019-05-29T00:30:56.191Z,10.70
2019-05-29T00:33:23.457Z,10.80
2019-05-29T00:35:50.984Z,10.80
2019-05-29T00:38:18.250Z,10.80
2019-05-29T00:40:45.379Z,10.90
2019-05-29T00:43:13.245Z,10.90
2019-05-29T00:45:40.647Z,11.00
2019-05-29T00:48:07.940Z,10.90
2019-05-29T00:50:35.220Z,11.00
2019-05-29T00:53:02.507Z,11.00
2019-05-29T00:55:30.131Z,11.00
2019-05-29T00:57:57.385Z,10.90
2019-05-29T01:00:24.640Z,10.90
2019-05-29T01:02:51.882Z,10.90
2019-05-29T01:05:20.132Z,10.80
2019-05-29T01:07:47.867Z,10.90
2019-05-29T01:10:16.678Z,10.90
2019-05-29T01:12:44.092Z,10.90
2019-05-29T01:15:11.628Z,10.90
2019-05-29T01:17:38.888Z,10.90
2019-05-29T01:20:06.567Z,10.80
2019-05-29T01:22:33.808Z,10.70
2019-05-29T01:25:01.083Z,10.70
2019-05-29T01:27:28.304Z,10.70
2019-05-29T01:29:55.871Z,10.60
2019-05-29T01:32:23.726Z,10.50
2019-05-29T01:34:51.312Z,10.30
2019-05-29T01:37:18.436Z,10.40
2019-05-29T01:39:45.687Z,10.50
2019-05-29T01:42:12.947Z,10.40
2019-05-29T01:44:40.192Z,10.40
2019-05-29T01:47:07.416Z,10.40
2019-05-29T01:49:35.209Z,10.40
2019-05-29T01:52:02.601Z,10.50
2019-05-29T01:54:29.960Z,10.50
2019-05-29T01:56:57.123Z,10.60
2019-05-29T01:59:25.026Z,10.60
2019-05-29T02:01:52.261Z,10.70
2019-05-29T02:04:19.862Z,10.70
2019-05-29T02:06:47.254Z,10.70
2019-05-29T02:09:14.396Z,10.70
2019-05-29T02:11:41.920Z,10.70
2019-05-29T02:14:09.475Z,10.70
2019-05-29T02:16:36.796Z,10.70
2019-05-29T02:19:04.053Z,10.80
2019-05-29T02:21:31.629Z,10.80
2019-05-29T02:23:58.863Z,10.80
2019-05-29T02:26:26.542Z,10.70
2019-05-29T02:28:53.888Z,10.70
2019-05-29T02:31:21.997Z,10.70
2019-05-29T02:33:50.308Z,10.70
2019-05-29T02:36:17.817Z,10.70
2019-05-29T02:38:45.317Z,10.70
2019-05-29T02:41:12.541Z,10.70
2019-05-29T02:43:39.801Z,10.60
2019-05-29T02:46:07.145Z,10.50
2019-05-29T02:48:34.695Z,10.20
2019-05-29T02:51:01.857Z,10.00
2019-05-29T02:53:30.621Z,9.90
2019-05-29T02:55:58.069Z,9.70
2019-05-29T02:58:27.470Z,9.70
2019-05-29T03:00:55.182Z,9.60
2019-05-29T03:03:24.010Z,9.60
2019-05-29T03:05:53.461Z,9.60
2019-05-29T03:08:22.229Z,9.60
2019-05-29T03:10:50.172Z,9.60
2019-05-29T03:13:17.681Z,9.60
2019-05-29T03:15:44.949Z,9.60
2019-05-29T03:18:12.176Z,9.60
2019-05-29T03:20:39.602Z,9.70
2019-05-29T03:23:07.072Z,9.90
2019-05-29T03:25:35.191Z,10.00
2019-05-29T03:28:02.999Z,10.10
2019-05-29T03:30:34.908Z,10.20
2019-05-29T03:32:59.411Z,10.30
2019-05-29T03:35:28.186Z,10.40
2019-05-29T03:37:58.771Z,10.40
2019-05-29T03:40:26.537Z,10.40
2019-05-29T03:42:54.465Z,10.40
2019-05-29T03:45:21.799Z,10.50
2019-05-29T03:47:49.020Z,10.40
2019-05-29T03:50:16.359Z,10.30
2019-05-29T03:52:44.111Z,10.30
2019-05-29T03:55:11.252Z,10.10
2019-05-29T03:57:38.525Z,10.10
2019-05-29T04:00:06.161Z,10.10
2019-05-29T04:02:35.248Z,10.00
2019-05-29T04:05:02.651Z,10.10
2019-05-29T04:07:31.384Z,10.10
2019-05-29T04:09:58.940Z,10.20
2019-05-29T04:12:26.970Z,10.20
2019-05-29T04:14:54.816Z,10.20
2019-05-29T04:17:23.597Z,10.20
2019-05-29T04:19:50.972Z,10.20
2019-05-29T04:22:22.698Z,10.10
2019-05-29T04:24:53.385Z,10.30
2019-05-29T04:27:24.928Z,10.20
2019-05-29T04:29:54.765Z,10.20
2019-05-29T04:32:22.027Z,10.20
2019-05-29T04:34:49.338Z,10.20
2019-05-29T04:37:16.618Z,10.20
2019-05-29T04:39:43.793Z,10.40
2019-05-29T04:42:14.441Z,10.50
2019-05-29T04:44:41.661Z,10.50
2019-05-29T04:47:11.590Z,10.70
2019-05-29T04:49:39.779Z,10.60
2019-05-29T04:52:07.211Z,10.60
2019-05-29T04:54:35.370Z,10.70
2019-05-29T04:57:03.148Z,10.80
2019-05-29T04:59:30.860Z,10.90
2019-05-29T05:01:58.510Z,11.00
2019-05-29T05:04:26.155Z,11.10
2019-05-29T05:06:53.385Z,11.10
2019-05-29T05:09:21.007Z,11.20
2019-05-29T05:11:48.352Z,11.20
2019-05-29T05:14:15.897Z,11.20
2019-05-29T05:16:44.457Z,11.30
2019-05-29T05:19:11.752Z,11.40
2019-05-29T05:21:40.158Z,11.40
2019-05-29T05:24:08.076Z,11.40
2019-05-29T05:26:36.272Z,11.30
2019-05-29T05:29:03.652Z,11.30
2019-05-29T05:31:32.305Z,11.40
2019-05-29T05:34:00.157Z,11.40
2019-05-29T05:36:27.408Z,11.30
2019-05-29T05:38:54.705Z,11.40
2019-05-29T05:41:22.351Z,11.50
2019-05-29T05:43:49.579Z,11.40
2019-05-29T05:46:16.833Z,11.50
2019-05-29T05:48:44.573Z,11.60
2019-05-29T05:51:11.851Z,11.70
2019-05-29T05:53:39.495Z,11.60
2019-05-29T05:56:06.947Z,11.60
2019-05-29T05:58:34.183Z,11.70
2019-05-29T06:01:01.332Z,11.80
2019-05-29T06:03:28.878Z,11.80
2019-05-29T06:05:56.209Z,11.90
2019-05-29T06:08:23.472Z,12.00
2019-05-29T06:10:51.387Z,12.20
2019-05-29T06:13:18.769Z,12.30
2019-05-29T06:15:46.112Z,12.40
2019-05-29T06:18:20.978Z,12.50
2019-05-29T06:20:43.209Z,12.60
2019-05-29T06:23:10.655Z,12.60
2019-05-29T06:25:39.081Z,12.70
2019-05-29T06:28:07.044Z,12.70
2019-05-29T06:30:36.140Z,13.00
2019-05-29T06:33:03.453Z,13.30
2019-05-29T06:35:30.976Z,13.40
2019-05-29T06:37:58.344Z,13.30
2019-05-29T06:40:38.297Z,13.30
2019-05-29T06:43:06.849Z,13.20
2019-05-29T06:45:35.843Z,13.10
2019-05-29T06:48:05.550Z,13.00
2019-05-29T06:50:32.783Z,13.00
2019-05-29T06:53:00.377Z,13.10
2019-05-29T06:55:27.640Z,13.00
2019-05-29T06:57:54.909Z,12.90
2019-05-29T07:00:34.788Z,12.80
2019-05-29T07:02:51.304Z,12.90
2019-05-29T07:05:19.001Z,12.90
2019-05-29T07:07:46.648Z,12.90
2019-05-29T07:10:13.915Z,13.00
2019-05-29T07:12:42.420Z,13.00
2019-05-29T07:15:10.660Z,13.00
2019-05-29T07:17:38.602Z,13.10
2019-05-29T07:20:06.782Z,13.30
2019-05-29T07:22:34.555Z,13.30
2019-05-29T07:25:02.199Z,13.30
2019-05-29T07:27:29.641Z,13.30
2019-05-29T07:29:56.993Z,13.30
2019-05-29T07:32:25.237Z,13.50
2019-05-29T07:35:03.139Z,13.60
2019-05-29T07:37:22.207Z,13.60
2019-05-29T07:39:50.024Z,13.80
2019-05-29T07:42:17.352Z,13.90
2019-05-29T07:44:46.231Z,13.60
2019-05-29T07:47:13.817Z,13.80
2019-05-29T07:49:44.362Z,13.90
2019-05-29T07:52:10.404Z,14.00
2019-05-29T07:54:39.835Z,14.00
2019-05-29T07:57:07.317Z,13.90
2019-05-29T07:59:34.892Z,14.10
2019-05-29T08:02:02.148Z,14.20
2019-05-29T08:04:29.469Z,14.30
2019-05-29T08:06:56.611Z,14.30
2019-05-29T08:09:24.378Z,14.40
2019-05-29T08:11:51.758Z,14.30
2019-05-29T08:14:19.133Z,14.30
2019-05-29T08:16:46.497Z,14.30
2019-05-29T08:19:13.757Z,14.50
2019-05-29T08:21:42.591Z,14.60
2019-05-29T08:24:10.385Z,14.60
2019-05-29T08:26:38.256Z,15.00
2019-05-29T08:29:06.132Z,15.00
2019-05-29T08:31:33.519Z,14.70
2019-05-29T08:34:00.879Z,14.50
2019-05-29T08:36:28.207Z,14.60
2019-05-29T08:38:56.164Z,14.60
2019-05-29T08:41:23.421Z,14.50
2019-05-29T08:43:50.854Z,14.60
2019-05-29T08:46:18.649Z,14.40
2019-05-29T08:48:45.980Z,14.20
2019-05-29T08:51:13.543Z,14.20
2019-05-29T08:53:42.527Z,13.90
2019-05-29T08:56:10.561Z,14.00
2019-05-29T08:58:38.302Z,14.20
2019-05-29T09:01:05.910Z,14.50
2019-05-29T09:03:33.242Z,14.70
2019-05-29T09:06:08.642Z,14.70
2019-05-29T09:08:29.741Z,14.50
2019-05-29T09:10:57.115Z,14.40
2019-05-29T09:13:24.485Z,14.20
2019-05-29T09:15:51.721Z,14.20
2019-05-29T09:18:19.767Z,14.10
2019-05-29T09:21:02.925Z,14.30
2019-05-29T09:23:18.919Z,14.30
2019-05-29T09:25:46.377Z,14.30
2019-05-29T09:28:15.840Z,14.50
2019-05-29T09:30:43.615Z,14.50
2019-05-29T09:33:11.108Z,14.40
2019-05-29T09:35:38.732Z,14.50
2019-05-29T09:38:06.080Z,14.80
2019-05-29T09:40:33.331Z,15.20
2019-05-29T09:43:00.619Z,15.20
2019-05-29T09:45:27.957Z,15.20
2019-05-29T09:47:55.183Z,15.10
2019-05-29T09:50:25.009Z,15.10
2019-05-29T09:52:54.445Z,15.30
2019-05-29T09:55:20.884Z,15.00
2019-05-29T09:57:48.436Z,14.60
2019-05-29T10:00:17.082Z,15.40
2019-05-29T10:02:44.426Z,16.00
2019-05-29T10:05:12.893Z,16.20
2019-05-29T10:07:40.129Z,16.10
2019-05-29T10:10:08.008Z,16.40
2019-05-29T10:12:35.246Z,16.90
2019-05-29T10:15:02.808Z,17.60
2019-05-29T10:17:30.703Z,17.70
2019-05-29T10:19:58.982Z,17.30
2019-05-29T10:22:26.649Z,16.80
2019-05-29T10:24:56.245Z,17.10
2019-05-29T10:27:23.167Z,17.10
2019-05-29T10:29:52.796Z,17.30
2019-05-29T10:32:19.601Z,17.00
2019-05-29T10:34:48.379Z,17.50
2019-05-29T10:37:18.209Z,17.40
2019-05-29T10:39:46.673Z,17.10
2019-05-29T10:42:14.584Z,16.70
2019-05-29T10:44:42.972Z,16.10
2019-05-29T10:47:10.393Z,16.00
2019-05-29T10:49:37.793Z,16.30
2019-05-29T10:52:14.527Z,17.70
2019-05-29T10:54:34.627Z,18.90
2019-05-29T10:57:01.909Z,20.10
2019-05-29T10:59:29.139Z,21.50
2019-05-29T11:01:56.365Z,20.80
2019-05-29T11:04:23.701Z,19.30
2019-05-29T11:06:52.518Z,18.50
2019-05-29T11:09:20.524Z,17.80
2019-05-29T11:11:48.401Z,17.50
2019-05-29T11:14:15.908Z,17.20
2019-05-29T11:16:43.142Z,17.50
2019-05-29T11:19:10.737Z,17.40
2019-05-29T11:21:38.028Z,17.20
2019-05-29T11:24:05.637Z,17.20
2019-05-29T11:26:32.893Z,19.60
2019-05-29T11:29:00.063Z,20.70
2019-05-29T11:31:27.828Z,19.60
2019-05-29T11:33:55.078Z,19.00
2019-05-29T11:36:22.401Z,19.90
2019-05-29T11:38:50.504Z,20.50
2019-05-29T11:41:26.074Z,21.80
2019-05-29T11:43:47.068Z,21.60
2019-05-29T11:46:14.594Z,23.10
2019-05-29T11:48:41.853Z,24.10
2019-05-29T11:51:09.086Z,23.90
2019-05-29T11:53:36.364Z,23.70
2019-05-29T11:56:03.900Z,24.20
2019-05-29T11:58:31.879Z,24.50
2019-05-29T12:00:59.633Z,25.60
2019-05-29T12:03:26.876Z,25.40
2019-05-29T12:05:55.257Z,25.60
2019-05-29T12:08:22.771Z,25.40
2019-05-29T12:10:51.203Z,25.00
2019-05-29T12:13:18.700Z,23.50
2019-05-29T12:15:46.220Z,21.70
2019-05-29T12:18:23.726Z,20.70
2019-05-29T12:20:42.706Z,19.90
2019-05-29T12:23:24.763Z,19.80
2019-05-29T12:25:39.546Z,19.50
2019-05-29T12:28:06.784Z,18.80
2019-05-29T12:30:34.308Z,18.90
2019-05-29T12:33:01.568Z,19.10
2019-05-29T12:35:28.876Z,19.40
2019-05-29T12:37:57.264Z,19.40
2019-05-29T12:40:24.732Z,19.40
2019-05-29T12:42:53.429Z,19.00
2019-05-29T12:45:21.005Z,18.80
2019-05-29T12:47:48.269Z,19.20
2019-05-29T12:50:16.641Z,18.60
2019-05-29T12:52:43.904Z,18.70
2019-05-29T12:55:11.910Z,18.40
2019-05-29T12:57:39.180Z,18.30
2019-05-29T13:00:07.564Z,18.60
2019-05-29T13:02:35.205Z,19.40
2019-05-29T13:05:11.307Z,20.40
2019-05-29T13:07:32.468Z,20.60
2019-05-29T13:10:00.504Z,20.80
2019-05-29T13:12:27.940Z,20.20
2019-05-29T13:14:56.454Z,20.30
2019-05-29T13:17:23.866Z,20.70
2019-05-29T13:19:51.111Z,20.80
2019-05-29T13:22:18.444Z,20.80
2019-05-29T13:24:45.674Z,20.70
2019-05-29T13:27:12.958Z,20.70
2019-05-29T13:29:40.179Z,20.60
2019-05-29T13:32:07.840Z,20.40
2019-05-29T13:34:35.473Z,20.30
2019-05-29T13:37:06.677Z,20.20
2019-05-29T13:39:31.856Z,19.90
2019-05-29T13:42:05.189Z,19.70
2019-05-29T13:44:28.709Z,19.70
2019-05-29T13:46:57.703Z,19.70
2019-05-29T13:49:25.185Z,19.80
2019-05-29T13:51:52.524Z,20.10
2019-05-29T13:54:19.864Z,20.20
2019-05-29T13:56:47.309Z,20.00
2019-05-29T13:59:15.013Z,20.30
2019-05-29T14:01:47.141Z,20.10
2019-05-29T14:04:11.438Z,19.40
2019-05-29T14:06:38.764Z,18.70
2019-05-29T14:09:07.674Z,18.10
2019-05-29T14:11:35.632Z,18.20
2019-05-29T14:14:04.123Z,18.10
2019-05-29T14:16:32.312Z,18.80
2019-05-29T14:19:00.730Z,19.30
2019-05-29T14:21:28.314Z,19.30
2019-05-29T14:23:55.696Z,18.80
2019-05-29T14:26:22.972Z,19.00
2019-05-29T14:28:50.797Z,19.30
2019-05-29T14:31:18.140Z,19.50
2019-05-29T14:33:45.356Z,19.60
2019-05-29T14:36:12.684Z,20.30
2019-05-29T14:38:39.957Z,20.20
2019-05-29T14:41:08.174Z,19.20
2019-05-29T14:43:35.936Z,18.90
2019-05-29T14:46:03.953Z,18.80
2019-05-29T14:48:31.439Z,19.20
2019-05-29T14:50:58.840Z,19.20
2019-05-29T14:53:26.177Z,18.80
2019-05-29T14:55:53.731Z,18.80
2019-05-29T14:58:20.987Z,19.00
2019-05-29T15:00:48.264Z,19.30
2019-05-29T15:03:17.427Z,19.40
2019-05-29T15:05:44.792Z,19.30
2019-05-29T15:08:12.090Z,19.10
2019-05-29T15:10:39.710Z,19.20
2019-05-29T15:13:08.985Z,19.20
2019-05-29T15:15:36.862Z,19.70
2019-05-29T15:18:04.923Z,20.00
2019-05-29T15:20:32.355Z,20.30
2019-05-29T15:23:00.029Z,20.30
2019-05-29T15:25:27.412Z,20.30
2019-05-29T15:27:57.733Z,20.00
2019-05-29T15:30:24.994Z,19.60
2019-05-29T15:32:55.175Z,19.50
2019-05-29T15:35:22.653Z,19.70
2019-05-29T15:37:50.332Z,19.30
2019-05-29T15:40:17.592Z,19.60
2019-05-29T15:42:45.456Z,19.80
2019-05-29T15:45:14.077Z,19.50
2019-05-29T15:47:41.793Z,19.50
2019-05-29T15:50:11.132Z,19.30
2019-05-29T15:52:38.897Z,18.90
2019-05-29T15:55:23.555Z,18.50
2019-05-29T15:57:35.836Z,18.50
2019-05-29T16:00:03.888Z,19.00
2019-05-29T16:02:31.284Z,19.30
2019-05-29T16:04:58.819Z,19.30
2019-05-29T16:07:26.167Z,19.20
2019-05-29T16:09:54.337Z,19.00
2019-05-29T16:12:21.686Z,19.00
2019-05-29T16:14:48.925Z,18.60
2019-05-29T16:17:17.320Z,18.40
2019-05-29T16:19:45.017Z,18.20
2019-05-29T16:22:12.299Z,18.20
2019-05-29T16:24:39.944Z,18.00
2019-05-29T16:27:09.026Z,18.10
2019-05-29T16:29:39.036Z,18.10
2019-05-29T16:32:06.988Z,18.00
2019-05-29T16:34:34.601Z,17.80
2019-05-29T16:37:02.010Z,17.70
2019-05-29T16:39:29.732Z,17.30
2019-05-29T16:41:57.032Z,17.20
2019-05-29T16:44:29.101Z,17.10
2019-05-29T16:46:53.510Z,17.20
2019-05-29T16:49:21.294Z,17.30
2019-05-29T16:51:48.788Z,17.50
2019-05-29T16:54:17.182Z,17.50
2019-05-29T16:56:45.041Z,17.60
2019-05-29T16:59:12.828Z,17.70
2019-05-29T17:01:40.300Z,17.60
2019-05-29T17:04:07.548Z,17.50
2019-05-29T17:06:35.149Z,17.70
2019-05-29T17:09:04.502Z,17.70
2019-05-29T17:11:32.122Z,17.80
2019-05-29T17:13:59.675Z,17.90
2019-05-29T17:16:26.961Z,17.90
2019-05-29T17:18:54.696Z,17.80
2019-05-29T17:21:22.799Z,17.90
2019-05-29T17:23:50.184Z,17.80
2019-05-29T17:26:24.941Z,17.80
2019-05-29T17:28:52.476Z,17.90
2019-05-29T17:31:20.830Z,18.00
2019-05-29T17:33:48.123Z,18.10
2019-05-29T17:36:16.850Z,18.20
2019-05-29T17:38:44.273Z,18.10
2019-05-29T17:41:11.580Z,18.10
2019-05-29T17:43:38.852Z,18.00
2019-05-29T17:46:06.117Z,17.80
2019-05-29T17:48:33.386Z,17.70
2019-05-29T17:51:00.708Z,17.60
2019-05-29T17:53:27.961Z,17.50
2019-05-29T17:55:55.224Z,17.50
2019-05-29T17:58:23.015Z,17.50
2019-05-29T18:00:52.100Z,17.30
2019-05-29T18:03:20.098Z,17.20
2019-05-29T18:05:47.609Z,17.20
2019-05-29T18:08:14.865Z,17.20
2019-05-29T18:10:42.950Z,17.00
2019-05-29T18:13:10.177Z,16.70
2019-05-29T18:15:37.761Z,16.60
2019-05-29T18:18:05.048Z,16.50
2019-05-29T18:20:32.572Z,16.40
2019-05-29T18:23:00.322Z,16.40
2019-05-29T18:25:28.104Z,16.20
2019-05-29T18:27:55.813Z,16.10
2019-05-29T18:30:24.368Z,15.90
2019-05-29T18:32:52.112Z,15.70
2019-05-29T18:35:19.335Z,15.50
2019-05-29T18:37:46.592Z,15.30
2019-05-29T18:40:14.142Z,15.10
2019-05-29T18:42:41.748Z,15.00
2019-05-29T18:45:20.458Z,14.80
2019-05-29T18:47:38.716Z,14.70
2019-05-29T18:50:06.352Z,14.60
2019-05-29T18:52:33.616Z,14.40
2019-05-29T18:55:00.840Z,14.20
2019-05-29T18:57:29.008Z,14.00
2019-05-29T18:59:56.418Z,13.90
2019-05-29T19:02:25.146Z,13.80
2019-05-29T19:04:52.728Z,13.60
2019-05-29T19:07:19.985Z,13.50
2019-05-29T19:10:09.253Z,13.30
2019-05-29T19:12:36.510Z,13.20
2019-05-29T19:15:04.977Z,13.10
2019-05-29T19:17:32.357Z,13.10
2019-05-29T19:20:01.905Z,13.00
2019-05-29T19:22:30.430Z,12.90
2019-05-29T19:24:58.048Z,12.90
2019-05-29T19:27:33.188Z,12.70
2019-05-29T19:29:54.964Z,12.60
2019-05-29T19:32:23.345Z,12.50
2019-05-29T19:34:50.850Z,12.50
2019-05-29T19:37:18.206Z,12.40
2019-05-29T19:39:49.026Z,12.30
2019-05-29T19:42:16.352Z,12.30
2019-05-29T19:44:46.864Z,12.30
2019-05-29T19:47:16.560Z,12.20
2019-05-29T19:49:43.851Z,12.20
2019-05-29T19:52:11.344Z,12.20
2019-05-29T19:54:39.137Z,12.20
2019-05-29T19:57:06.408Z,12.20
2019-05-29T19:59:34.106Z,12.20
2019-05-29T20:02:01.841Z,12.20
2019-05-29T20:04:30.531Z,12.20
2019-05-29T20:06:59.131Z,12.10
2019-05-29T20:09:27.295Z,12.10
2019-05-29T20:11:57.786Z,11.90
2019-05-29T20:14:25.259Z,11.80
2019-05-29T20:16:52.910Z,11.70
2019-05-29T20:19:21.306Z,11.70
2019-05-29T20:21:48.870Z,11.60
2019-05-29T20:24:17.432Z,11.60
2019-05-29T20:26:44.764Z,11.50
2019-05-29T20:29:12.551Z,11.40
2019-05-29T20:31:39.941Z,11.30
2019-05-29T20:34:07.353Z,11.30
2019-05-29T20:36:35.173Z,11.20
2019-05-29T20:39:06.228Z,11.20
2019-05-29T20:41:35.284Z,11.20
2019-05-29T20:44:02.996Z,11.10
2019-05-29T20:46:30.885Z,11.10
2019-05-29T20:48:58.308Z,11.00
2019-05-29T20:51:25.909Z,11.00
2019-05-29T20:53:55.628Z,10.90
2019-05-29T20:56:22.932Z,10.90
2019-05-29T20:58:50.728Z,10.90
2019-05-29T21:01:18.075Z,10.80
2019-05-29T21:03:47.561Z,10.70
2019-05-29T21:06:16.407Z,10.80
2019-05-29T21:08:43.842Z,11.00
2019-05-29T21:11:11.232Z,11.10
2019-05-29T21:13:41.562Z,11.10
2019-05-29T21:16:09.884Z,11.00
2019-05-29T21:18:37.884Z,10.70
2019-05-29T21:21:05.517Z,10.50
2019-05-29T21:23:32.794Z,10.50
2019-05-29T21:26:00.099Z,10.40
2019-05-29T21:28:39.724Z,10.30
2019-05-29T21:30:56.528Z,10.40
2019-05-29T21:33:23.752Z,10.40
2019-05-29T21:35:51.014Z,10.20
2019-05-29T21:38:18.280Z,10.30
2019-05-29T21:40:46.750Z,10.30
2019-05-29T21:43:14.482Z,10.40
2019-05-29T21:45:43.141Z,10.50
2019-05-29T21:48:10.457Z,10.50
2019-05-29T21:50:37.711Z,10.40
2019-05-29T21:53:04.989Z,10.20
2019-05-29T21:55:32.242Z,10.00
2019-05-29T21:58:04.861Z,10.00
2019-05-29T22:00:36.413Z,10.10
2019-05-29T22:03:06.033Z,10.30
2019-05-29T22:05:33.236Z,10.30
2019-05-29T22:08:00.810Z,10.40
2019-05-29T22:10:28.077Z,10.40
2019-05-29T22:12:56.474Z,10.30
2019-05-29T22:15:23.984Z,10.30
2019-05-29T22:17:52.835Z,10.20
2019-05-29T22:20:20.276Z,10.30
2019-05-29T22:22:47.492Z,10.30
2019-05-29T22:25:15.044Z,10.30
2019-05-29T22:27:42.314Z,10.40
2019-05-29T22:30:09.635Z,10.50
2019-05-29T22:32:36.975Z,10.40
2019-05-29T22:35:04.304Z,10.50
2019-05-29T22:37:31.924Z,10.50
2019-05-29T22:39:59.601Z,10.50
2019-05-29T22:42:27.352Z,10.40
2019-05-29T22:44:55.640Z,10.30
2019-05-29T22:47:23.020Z,10.30
2019-05-29T22:49:51.659Z,10.30
2019-05-29T22:52:19.099Z,10.20
2019-05-29T22:54:46.369Z,10.20
2019-05-29T22:57:13.616Z,10.20
2019-05-29T22:59:40.882Z,10.00
2019-05-29T23:02:08.480Z,9.90
2019-05-29T23:04:36.106Z,9.70
2019-05-29T23:07:03.404Z,9.60
2019-05-29T23:09:30.789Z,9.50
2019-05-29T23:12:00.350Z,9.40
2019-05-29T23:14:27.859Z,9.30
2019-05-29T23:16:56.418Z,9.30
2019-05-29T23:19:23.792Z,9.20
2019-05-29T23:21:52.391Z,9.10
2019-05-29T23:24:19.733Z,9.10
2019-05-29T23:26:47.325Z,9.10
2019-05-29T23:29:14.608Z,9.20
2019-05-29T23:31:41.873Z,9.30
2019-05-29T23:34:09.492Z,9.40
2019-05-29T23:36:37.025Z,9.50
2019-05-29T23:39:04.787Z,9.50
2019-05-29T23:41:32.113Z,9.40
2019-05-29T23:43:59.591Z,9.20
2019-05-29T23:46:27.268Z,9.10
2019-05-29T23:48:55.433Z,8.90
2019-05-29T23:51:22.776Z,8.80
2019-05-29T23:53:50.384Z,8.70
2019-05-29T23:56:17.656Z,8.70
2019-05-29T23:58:44.927Z,8.60
